Route Details

Aircraft Information
Group: North America Fleet
Types: B738, B752, B762, B763
Route Data
Distance: 1549nm
Duration: 3h 50m
Origin METAR: KSFO 010456Z 29007KT 10SM FEW200 09/04 A3018 RMK AO2 SLP220 T00940039
Dest. METAR: KRFD 010454Z 19004KT 10SM CLR M18/M22 A3037 RMK AO2 SLP303 T11831222
Freight Data
(for Feb 1, 2023)
Load Factor:
42%
Manifested Cargo: 39,758lbs
Financial History
Total Freight: 0lbs
Average Load: 0lbs/flt
Fuel Used: 0lbs
Avg. Fuel Used: 0lbs/flt
Fuel Expense: $0
Avg. Fuel Expense: $0
Avg. Fuel Cost: $0/lbs
Total Gross Income: $0
Pilot Pay: $0
Total Expenses: $0
Total Revenue: $0
Average Revenue: $0

Capitol Logistics 470




KSFO
San Francisco International Airport
San Francisco, California
KRFD
Chicago/Rockford International Airport
Rockford, Illinois

Activity Log

Date Flight Route Aircraft Duration
No Flights Yet